Andalusia, AL (36420)

9:35 AM CST on December 03, 2016 (GMT -0600)
KALANDAL4 | | Change Station

Elev 367 ft 31.35 °N, 86.47 °W | Updated 8 seconds ago

Overcast
Overcast
57.0 °F
Feels Like 57.0 °F
N
0.0
Wind Variable Wind from ENE
Gusts 3.0 mph

Today
High -- | Low -- °F
--% Chance of Precip.
Yesterday
High -- | Low -- °F
Precip. -- in
Pressure 30.25 in
Visibility 10.0 miles
Clouds Mostly Cloudy 8000 ft
Overcast 10000 ft
Dew Point 40 °F
Humidity 52%
Rainfall 0.00 in
Snow Depth Not available.
6:29 AM 4:42 PM
Waxing Crescent, 15% visible
METAR K79J 031456Z AUTO 07005KT 10SM BKN080 OVC100 15/01 A3025 RMK AO2 SLP242 T01500011 53009
Pressure 30.25 in
Visibility 10.0 miles
Clouds Mostly Cloudy 8000 ft
Overcast 10000 ft
Dew Point 40 °F
Humidity 52%
Rainfall 0.00 in
Snow Depth Not available.
6:29 AM 4:42 PM
Waxing Crescent, 15% visible
METAR K79J 031456Z AUTO 07005KT 10SM BKN080 OVC100 15/01 A3025 RMK AO2 SLP242 T01500011 53009

10-Day Weather Forecast

Almanac

Astronomy

Dec. 03, 2016 Rise Set
Actual Time
Civil Twilight
Nautical Twilight
Astronomical Twilight
Moon
Length of Visible Light
Length of Day
Tomorrow will be .
, % of the Moon is Illuminated

Today's Extremes

State Highs State Lows

Community

WunderPhotos

Upload Photos

1,955,425 photos uploaded!

WunderBlog® & News

Nearby

Air Quality

  Air Quality AQ Index Pollutant
Not available.

Snow Depth

Station Depth Elevation

Earthquake Activity

City Distance Mag. Time & Date
Minimum magnitude displayed is 2.5.

Coastal Water Temperatures

Place Temperature

Stations

Nearby Weather Stations

Station Location Temp. Windchill Dew Point Humidity Wind Precip. Elev Updated Type
                   

Watches & Warnings

There are currently no watches in effect.